sensor_id;sensor_type;location;lat;lon;timestamp;temperature;humidity
8824;DHT22;4448;50.904;4.694;2023-05-07T00:01:08;16.80;99.90
8824;DHT22;4448;50.904;4.694;2023-05-07T00:03:34;16.80;99.90
8824;DHT22;4448;50.904;4.694;2023-05-07T00:06:00;16.80;99.90
8824;DHT22;4448;50.904;4.694;2023-05-07T00:08:26;16.80;99.90
8824;DHT22;4448;50.904;4.694;2023-05-07T00:10:51;16.80;99.90
8824;DHT22;4448;50.904;4.694;2023-05-07T00:13:17;16.80;99.90
8824;DHT22;4448;50.904;4.694;2023-05-07T00:15:43;16.90;99.90
8824;DHT22;4448;50.904;4.694;2023-05-07T00:18:08;16.80;99.90
8824;DHT22;4448;50.904;4.694;2023-05-07T00:20:34;16.80;99.90
8824;DHT22;4448;50.904;4.694;2023-05-07T00:22:59;16.80;99.90
8824;DHT22;4448;50.904;4.694;2023-05-07T00:25:25;16.80;99.90
8824;DHT22;4448;50.904;4.694;2023-05-07T00:27:51;17.10;99.90
8824;DHT22;4448;50.904;4.694;2023-05-07T00:30:17;16.80;99.90
8824;DHT22;4448;50.904;4.694;2023-05-07T00:32:42;16.80;99.90
8824;DHT22;4448;50.904;4.694;2023-05-07T00:35:11;16.80;99.90
8824;DHT22;4448;50.904;4.694;2023-05-07T00:37:36;16.80;99.90
8824;DHT22;4448;50.904;4.694;2023-05-07T00:40:02;16.80;99.90
8824;DHT22;4448;50.904;4.694;2023-05-07T00:42:30;16.80;99.90
8824;DHT22;4448;50.904;4.694;2023-05-07T00:44:58;16.80;99.90
8824;DHT22;4448;50.904;4.694;2023-05-07T00:47:25;16.80;99.90
8824;DHT22;4448;50.904;4.694;2023-05-07T00:49:51;16.80;99.90
8824;DHT22;4448;50.904;4.694;2023-05-07T00:52:17;16.80;99.90
8824;DHT22;4448;50.904;4.694;2023-05-07T00:54:45;16.80;99.90
8824;DHT22;4448;50.904;4.694;2023-05-07T00:57:11;16.80;99.90
8824;DHT22;4448;50.904;4.694;2023-05-07T00:59:37;16.80;99.90
8824;DHT22;4448;50.904;4.694;2023-05-07T01:02:02;16.80;99.90
8824;DHT22;4448;50.904;4.694;2023-05-07T01:04:28;16.80;99.90
8824;DHT22;4448;50.904;4.694;2023-05-07T01:06:55;16.80;99.90
8824;DHT22;4448;50.904;4.694;2023-05-07T01:09:23;16.80;99.90
8824;DHT22;4448;50.904;4.694;2023-05-07T01:11:49;16.80;99.90
8824;DHT22;4448;50.904;4.694;2023-05-07T01:14:16;16.80;99.90
8824;DHT22;4448;50.904;4.694;2023-05-07T01:16:42;16.70;99.90
8824;DHT22;4448;50.904;4.694;2023-05-07T01:19:08;16.70;99.90
8824;DHT22;4448;50.904;4.694;2023-05-07T01:21:37;16.70;99.90
8824;DHT22;4448;50.904;4.694;2023-05-07T01:24:04;16.70;99.90
8824;DHT22;4448;50.904;4.694;2023-05-07T01:26:30;16.80;99.90
8824;DHT22;4448;50.904;4.694;2023-05-07T01:28:56;16.70;99.90
8824;DHT22;4448;50.904;4.694;2023-05-07T01:31:23;16.70;99.90
8824;DHT22;4448;50.904;4.694;2023-05-07T01:33:50;16.70;99.90
8824;DHT22;4448;50.904;4.694;2023-05-07T01:36:18;16.70;99.90
8824;DHT22;4448;50.904;4.694;2023-05-07T01:38:45;16.70;99.90
8824;DHT22;4448;50.904;4.694;2023-05-07T01:41:12;16.70;99.90
8824;DHT22;4448;50.904;4.694;2023-05-07T01:43:40;16.70;99.90
8824;DHT22;4448;50.904;4.694;2023-05-07T01:46:08;16.70;99.90
8824;DHT22;4448;50.904;4.694;2023-05-07T01:48:35;16.70;99.90
8824;DHT22;4448;50.904;4.694;2023-05-07T01:51:01;16.70;99.90
8824;DHT22;4448;50.904;4.694;2023-05-07T01:53:27;16.70;99.90
8824;DHT22;4448;50.904;4.694;2023-05-07T01:55:53;16.70;99.90
8824;DHT22;4448;50.904;4.694;2023-05-07T01:58:19;16.60;99.90
8824;DHT22;4448;50.904;4.694;2023-05-07T02:00:45;16.60;99.90
8824;DHT22;4448;50.904;4.694;2023-05-07T02:03:11;16.60;99.90
8824;DHT22;4448;50.904;4.694;2023-05-07T02:05:37;16.60;99.90
8824;DHT22;4448;50.904;4.694;2023-05-07T02:08:02;16.60;99.90
8824;DHT22;4448;50.904;4.694;2023-05-07T02:10:28;16.60;99.90
8824;DHT22;4448;50.904;4.694;2023-05-07T02:12:54;16.60;99.90
8824;DHT22;4448;50.904;4.694;2023-05-07T02:15:20;16.60;99.90
8824;DHT22;4448;50.904;4.694;2023-05-07T02:18:06;16.60;99.90
8824;DHT22;4448;50.904;4.694;2023-05-07T02:20:32;16.60;99.90
8824;DHT22;4448;50.904;4.694;2023-05-07T02:22:58;16.60;99.90
8824;DHT22;4448;50.904;4.694;2023-05-07T02:25:23;16.60;99.90
8824;DHT22;4448;50.904;4.694;2023-05-07T02:27:49;16.60;99.90
8824;DHT22;4448;50.904;4.694;2023-05-07T02:30:15;16.60;99.90
8824;DHT22;4448;50.904;4.694;2023-05-07T02:32:41;16.60;99.90
8824;DHT22;4448;50.904;4.694;2023-05-07T02:35:07;16.60;99.90
8824;DHT22;4448;50.904;4.694;2023-05-07T02:37:32;16.60;99.90
8824;DHT22;4448;50.904;4.694;2023-05-07T02:39:58;16.60;99.90
8824;DHT22;4448;50.904;4.694;2023-05-07T02:42:24;16.60;99.90
8824;DHT22;4448;50.904;4.694;2023-05-07T02:44:49;16.60;99.90
8824;DHT22;4448;50.904;4.694;2023-05-07T02:47:15;16.60;99.90
8824;DHT22;4448;50.904;4.694;2023-05-07T02:49:41;16.60;99.90
8824;DHT22;4448;50.904;4.694;2023-05-07T02:52:07;16.60;99.90
8824;DHT22;4448;50.904;4.694;2023-05-07T02:54:33;16.60;99.90
8824;DHT22;4448;50.904;4.694;2023-05-07T02:56:58;16.60;99.90
8824;DHT22;4448;50.904;4.694;2023-05-07T02:59:26;16.60;99.90
8824;DHT22;4448;50.904;4.694;2023-05-07T03:01:51;16.60;99.90
8824;DHT22;4448;50.904;4.694;2023-05-07T03:04:17;16.60;99.90
8824;DHT22;4448;50.904;4.694;2023-05-07T03:06:43;16.50;99.90
8824;DHT22;4448;50.904;4.694;2023-05-07T03:09:09;16.50;99.90
8824;DHT22;4448;50.904;4.694;2023-05-07T03:11:34;16.50;99.90
8824;DHT22;4448;50.904;4.694;2023-05-07T03:14:01;16.50;99.90
8824;DHT22;4448;50.904;4.694;2023-05-07T03:16:27;16.40;99.90
8824;DHT22;4448;50.904;4.694;2023-05-07T03:18:53;16.40;99.90
8824;DHT22;4448;50.904;4.694;2023-05-07T03:21:19;16.50;99.90
8824;DHT22;4448;50.904;4.694;2023-05-07T03:23:44;16.40;99.90
8824;DHT22;4448;50.904;4.694;2023-05-07T03:26:10;16.50;99.90
8824;DHT22;4448;50.904;4.694;2023-05-07T03:28:36;16.50;99.90
8824;DHT22;4448;50.904;4.694;2023-05-07T03:31:02;16.40;99.90
8824;DHT22;4448;50.904;4.694;2023-05-07T03:33:28;16.40;99.90
8824;DHT22;4448;50.904;4.694;2023-05-07T03:35:54;16.40;99.90
8824;DHT22;4448;50.904;4.694;2023-05-07T03:38:19;16.40;99.90
8824;DHT22;4448;50.904;4.694;2023-05-07T03:40:45;16.40;99.90
8824;DHT22;4448;50.904;4.694;2023-05-07T03:43:11;16.40;99.90
8824;DHT22;4448;50.904;4.694;2023-05-07T03:45:36;16.40;99.90
8824;DHT22;4448;50.904;4.694;2023-05-07T03:48:02;16.40;99.90
8824;DHT22;4448;50.904;4.694;2023-05-07T03:50:28;16.40;99.90
8824;DHT22;4448;50.904;4.694;2023-05-07T03:52:54;16.40;99.90
8824;DHT22;4448;50.904;4.694;2023-05-07T03:55:19;16.40;99.90
8824;DHT22;4448;50.904;4.694;2023-05-07T03:57:45;16.40;99.90
8824;DHT22;4448;50.904;4.694;2023-05-07T04:00:11;16.40;99.90
8824;DHT22;4448;50.904;4.694;2023-05-07T04:02:37;16.40;99.90
8824;DHT22;4448;50.904;4.694;2023-05-07T04:05:03;16.40;99.90
8824;DHT22;4448;50.904;4.694;2023-05-07T04:07:29;16.40;99.90
8824;DHT22;4448;50.904;4.694;2023-05-07T04:09:54;16.40;99.90
8824;DHT22;4448;50.904;4.694;2023-05-07T04:12:20;16.50;99.90
8824;DHT22;4448;50.904;4.694;2023-05-07T04:14:45;16.40;99.90
8824;DHT22;4448;50.904;4.694;2023-05-07T04:17:11;16.40;99.90
8824;DHT22;4448;50.904;4.694;2023-05-07T04:19:37;16.40;99.90
8824;DHT22;4448;50.904;4.694;2023-05-07T04:22:03;16.40;99.90
8824;DHT22;4448;50.904;4.694;2023-05-07T04:24:31;16.40;99.90
8824;DHT22;4448;50.904;4.694;2023-05-07T04:26:58;16.40;99.90
8824;DHT22;4448;50.904;4.694;2023-05-07T04:29:24;16.40;99.90
8824;DHT22;4448;50.904;4.694;2023-05-07T04:31:49;16.40;99.90
8824;DHT22;4448;50.904;4.694;2023-05-07T04:34:15;16.40;99.90
8824;DHT22;4448;50.904;4.694;2023-05-07T04:36:41;16.40;99.90
8824;DHT22;4448;50.904;4.694;2023-05-07T04:39:07;16.40;99.90
8824;DHT22;4448;50.904;4.694;2023-05-07T04:41:35;16.40;99.90
8824;DHT22;4448;50.904;4.694;2023-05-07T04:44:01;16.40;99.90
8824;DHT22;4448;50.904;4.694;2023-05-07T04:46:30;16.40;99.90
8824;DHT22;4448;50.904;4.694;2023-05-07T04:48:56;16.40;99.90
8824;DHT22;4448;50.904;4.694;2023-05-07T04:51:21;16.40;99.90
8824;DHT22;4448;50.904;4.694;2023-05-07T04:53:48;16.30;99.90
8824;DHT22;4448;50.904;4.694;2023-05-07T04:56:14;16.40;99.90
8824;DHT22;4448;50.904;4.694;2023-05-07T04:58:40;16.40;99.90
8824;DHT22;4448;50.904;4.694;2023-05-07T05:01:06;16.40;99.90
8824;DHT22;4448;50.904;4.694;2023-05-07T05:03:31;16.40;99.90
8824;DHT22;4448;50.904;4.694;2023-05-07T05:05:57;16.40;99.90
8824;DHT22;4448;50.904;4.694;2023-05-07T05:08:25;16.40;99.90
8824;DHT22;4448;50.904;4.694;2023-05-07T05:10:51;16.40;99.90
8824;DHT22;4448;50.904;4.694;2023-05-07T05:13:16;16.40;99.90
8824;DHT22;4448;50.904;4.694;2023-05-07T05:15:43;16.40;99.90
8824;DHT22;4448;50.904;4.694;2023-05-07T05:18:08;16.40;99.90
8824;DHT22;4448;50.904;4.694;2023-05-07T05:20:34;16.50;99.90
8824;DHT22;4448;50.904;4.694;2023-05-07T05:23:00;16.50;99.90
8824;DHT22;4448;50.904;4.694;2023-05-07T05:25:25;16.50;99.90
8824;DHT22;4448;50.904;4.694;2023-05-07T05:27:51;16.50;99.90
8824;DHT22;4448;50.904;4.694;2023-05-07T05:30:17;16.50;99.90
8824;DHT22;4448;50.904;4.694;2023-05-07T05:32:42;16.50;99.90
8824;DHT22;4448;50.904;4.694;2023-05-07T05:35:08;16.60;99.90
8824;DHT22;4448;50.904;4.694;2023-05-07T05:37:34;16.60;99.90
8824;DHT22;4448;50.904;4.694;2023-05-07T05:39:59;16.60;99.90
8824;DHT22;4448;50.904;4.694;2023-05-07T05:42:25;16.60;99.90
8824;DHT22;4448;50.904;4.694;2023-05-07T05:44:50;16.60;99.90
8824;DHT22;4448;50.904;4.694;2023-05-07T05:47:16;16.60;99.90
8824;DHT22;4448;50.904;4.694;2023-05-07T05:49:42;16.60;99.90
8824;DHT22;4448;50.904;4.694;2023-05-07T05:52:09;16.60;99.90
8824;DHT22;4448;50.904;4.694;2023-05-07T05:54:35;16.60;99.90
8824;DHT22;4448;50.904;4.694;2023-05-07T05:57:00;16.60;99.90
8824;DHT22;4448;50.904;4.694;2023-05-07T05:59:29;16.70;99.90
8824;DHT22;4448;50.904;4.694;2023-05-07T06:01:55;16.70;99.90
8824;DHT22;4448;50.904;4.694;2023-05-07T06:04:20;16.70;99.90
8824;DHT22;4448;50.904;4.694;2023-05-07T06:06:46;16.70;99.90
8824;DHT22;4448;50.904;4.694;2023-05-07T06:09:12;16.80;99.90
8824;DHT22;4448;50.904;4.694;2023-05-07T06:11:37;16.80;99.90
8824;DHT22;4448;50.904;4.694;2023-05-07T06:14:03;16.80;99.90
8824;DHT22;4448;50.904;4.694;2023-05-07T06:16:29;16.80;99.90
8824;DHT22;4448;50.904;4.694;2023-05-07T06:18:55;16.80;99.90
8824;DHT22;4448;50.904;4.694;2023-05-07T06:21:21;16.80;99.90
8824;DHT22;4448;50.904;4.694;2023-05-07T06:23:46;16.80;99.90
8824;DHT22;4448;50.904;4.694;2023-05-07T06:26:12;16.90;99.90
8824;DHT22;4448;50.904;4.694;2023-05-07T06:28:37;16.90;99.90
8824;DHT22;4448;50.904;4.694;2023-05-07T06:31:17;16.90;99.90
8824;DHT22;4448;50.904;4.694;2023-05-07T06:33:44;16.90;99.90
8824;DHT22;4448;50.904;4.694;2023-05-07T06:36:10;16.90;99.90
8824;DHT22;4448;50.904;4.694;2023-05-07T06:38:36;16.90;99.90
8824;DHT22;4448;50.904;4.694;2023-05-07T06:41:01;17.00;99.90
8824;DHT22;4448;50.904;4.694;2023-05-07T06:43:27;17.00;99.90
8824;DHT22;4448;50.904;4.694;2023-05-07T06:45:53;17.00;99.90
8824;DHT22;4448;50.904;4.694;2023-05-07T06:48:18;17.00;99.90
8824;DHT22;4448;50.904;4.694;2023-05-07T06:50:44;17.00;99.90
8824;DHT22;4448;50.904;4.694;2023-05-07T06:53:09;17.00;99.90
8824;DHT22;4448;50.904;4.694;2023-05-07T06:55:35;17.00;99.90
8824;DHT22;4448;50.904;4.694;2023-05-07T06:58:01;17.00;99.90
8824;DHT22;4448;50.904;4.694;2023-05-07T07:00:27;17.00;99.90
8824;DHT22;4448;50.904;4.694;2023-05-07T07:02:54;17.00;99.90
8824;DHT22;4448;50.904;4.694;2023-05-07T07:05:20;17.00;99.90
8824;DHT22;4448;50.904;4.694;2023-05-07T07:07:46;17.00;99.90
8824;DHT22;4448;50.904;4.694;2023-05-07T07:10:24;17.00;99.90
8824;DHT22;4448;50.904;4.694;2023-05-07T07:12:50;17.00;99.90
8824;DHT22;4448;50.904;4.694;2023-05-07T07:15:16;17.00;99.90
8824;DHT22;4448;50.904;4.694;2023-05-07T07:17:41;17.00;99.90
8824;DHT22;4448;50.904;4.694;2023-05-07T07:20:08;17.10;99.90
8824;DHT22;4448;50.904;4.694;2023-05-07T07:22:33;17.10;99.90
8824;DHT22;4448;50.904;4.694;2023-05-07T07:24:59;17.10;99.90
8824;DHT22;4448;50.904;4.694;2023-05-07T07:27:25;17.20;99.90
8824;DHT22;4448;50.904;4.694;2023-05-07T07:29:51;17.10;99.90
8824;DHT22;4448;50.904;4.694;2023-05-07T07:32:16;17.10;99.90
8824;DHT22;4448;50.904;4.694;2023-05-07T07:34:42;17.20;99.90
8824;DHT22;4448;50.904;4.694;2023-05-07T07:37:08;17.20;99.90
8824;DHT22;4448;50.904;4.694;2023-05-07T07:39:33;17.20;99.90
8824;DHT22;4448;50.904;4.694;2023-05-07T07:41:59;17.20;99.90
8824;DHT22;4448;50.904;4.694;2023-05-07T07:44:25;17.30;99.90
8824;DHT22;4448;50.904;4.694;2023-05-07T07:46:51;17.20;99.90
8824;DHT22;4448;50.904;4.694;2023-05-07T07:49:17;17.20;99.90
8824;DHT22;4448;50.904;4.694;2023-05-07T07:51:42;17.30;99.90
8824;DHT22;4448;50.904;4.694;2023-05-07T07:54:08;17.30;99.90
8824;DHT22;4448;50.904;4.694;2023-05-07T07:56:34;17.30;99.90
8824;DHT22;4448;50.904;4.694;2023-05-07T07:59:00;17.30;99.90
8824;DHT22;4448;50.904;4.694;2023-05-07T08:01:26;17.30;99.90
8824;DHT22;4448;50.904;4.694;2023-05-07T08:03:52;17.30;99.90
8824;DHT22;4448;50.904;4.694;2023-05-07T08:06:18;17.30;99.90
8824;DHT22;4448;50.904;4.694;2023-05-07T08:08:43;17.30;99.90
8824;DHT22;4448;50.904;4.694;2023-05-07T08:11:10;17.30;99.90
8824;DHT22;4448;50.904;4.694;2023-05-07T08:13:36;17.40;99.90
8824;DHT22;4448;50.904;4.694;2023-05-07T08:16:04;17.40;99.90
8824;DHT22;4448;50.904;4.694;2023-05-07T08:18:29;17.40;99.90
8824;DHT22;4448;50.904;4.694;2023-05-07T08:20:55;17.40;99.90
8824;DHT22;4448;50.904;4.694;2023-05-07T08:23:21;17.40;99.90
8824;DHT22;4448;50.904;4.694;2023-05-07T08:25:48;17.40;99.90
8824;DHT22;4448;50.904;4.694;2023-05-07T08:28:14;17.40;99.90
8824;DHT22;4448;50.904;4.694;2023-05-07T08:30:40;17.50;99.90
8824;DHT22;4448;50.904;4.694;2023-05-07T08:33:08;17.50;99.90
8824;DHT22;4448;50.904;4.694;2023-05-07T08:35:33;17.50;99.90
8824;DHT22;4448;50.904;4.694;2023-05-07T08:37:59;17.50;99.90
8824;DHT22;4448;50.904;4.694;2023-05-07T08:40:26;17.50;99.90
8824;DHT22;4448;50.904;4.694;2023-05-07T08:42:53;17.60;99.90
8824;DHT22;4448;50.904;4.694;2023-05-07T08:45:20;17.60;99.90
8824;DHT22;4448;50.904;4.694;2023-05-07T08:47:52;17.60;99.90
8824;DHT22;4448;50.904;4.694;2023-05-07T08:50:20;17.70;99.90
8824;DHT22;4448;50.904;4.694;2023-05-07T08:52:46;17.70;99.90
8824;DHT22;4448;50.904;4.694;2023-05-07T08:55:12;17.70;99.90
8824;DHT22;4448;50.904;4.694;2023-05-07T08:57:38;17.80;99.90
8824;DHT22;4448;50.904;4.694;2023-05-07T09:00:05;17.80;99.90
8824;DHT22;4448;50.904;4.694;2023-05-07T09:02:32;17.80;99.90
8824;DHT22;4448;50.904;4.694;2023-05-07T09:04:58;17.80;99.90
8824;DHT22;4448;50.904;4.694;2023-05-07T09:07:25;17.90;99.90
8824;DHT22;4448;50.904;4.694;2023-05-07T09:09:50;17.90;99.90
8824;DHT22;4448;50.904;4.694;2023-05-07T09:12:18;17.90;99.90
8824;DHT22;4448;50.904;4.694;2023-05-07T09:14:44;17.80;99.90
8824;DHT22;4448;50.904;4.694;2023-05-07T09:17:11;17.80;99.90
8824;DHT22;4448;50.904;4.694;2023-05-07T09:19:37;17.80;99.90
8824;DHT22;4448;50.904;4.694;2023-05-07T09:22:04;17.80;99.90
8824;DHT22;4448;50.904;4.694;2023-05-07T09:24:32;17.80;99.90
8824;DHT22;4448;50.904;4.694;2023-05-07T09:27:06;17.80;99.90
8824;DHT22;4448;50.904;4.694;2023-05-07T09:29:35;17.80;99.90
8824;DHT22;4448;50.904;4.694;2023-05-07T09:32:05;17.80;99.90
8824;DHT22;4448;50.904;4.694;2023-05-07T09:34:31;17.80;99.90
8824;DHT22;4448;50.904;4.694;2023-05-07T09:37:06;17.80;99.90
8824;DHT22;4448;50.904;4.694;2023-05-07T09:39:43;17.80;99.90
8824;DHT22;4448;50.904;4.694;2023-05-07T09:42:09;17.80;99.90
8824;DHT22;4448;50.904;4.694;2023-05-07T09:44:36;17.80;99.90
8824;DHT22;4448;50.904;4.694;2023-05-07T09:47:05;17.80;99.90
8824;DHT22;4448;50.904;4.694;2023-05-07T09:49:37;17.90;99.90
8824;DHT22;4448;50.904;4.694;2023-05-07T09:52:04;17.90;99.90
8824;DHT22;4448;50.904;4.694;2023-05-07T09:54:36;17.90;99.90
8824;DHT22;4448;50.904;4.694;2023-05-07T09:57:04;17.90;99.90
8824;DHT22;4448;50.904;4.694;2023-05-07T09:59:31;18.00;99.90
8824;DHT22;4448;50.904;4.694;2023-05-07T10:01:58;18.00;99.90
8824;DHT22;4448;50.904;4.694;2023-05-07T10:04:25;18.00;99.90
8824;DHT22;4448;50.904;4.694;2023-05-07T10:06:52;18.00;99.90
8824;DHT22;4448;50.904;4.694;2023-05-07T10:09:18;18.00;99.90
8824;DHT22;4448;50.904;4.694;2023-05-07T10:11:44;18.00;99.90
8824;DHT22;4448;50.904;4.694;2023-05-07T10:14:10;18.00;99.90
8824;DHT22;4448;50.904;4.694;2023-05-07T10:16:36;18.00;99.90
8824;DHT22;4448;50.904;4.694;2023-05-07T10:19:06;18.00;99.90
8824;DHT22;4448;50.904;4.694;2023-05-07T10:21:54;18.00;99.90
8824;DHT22;4448;50.904;4.694;2023-05-07T10:24:26;18.00;99.90
8824;DHT22;4448;50.904;4.694;2023-05-07T10:26:53;18.00;99.90
8824;DHT22;4448;50.904;4.694;2023-05-07T10:29:37;18.00;99.90
8824;DHT22;4448;50.904;4.694;2023-05-07T10:34:42;18.00;99.90
8824;DHT22;4448;50.904;4.694;2023-05-07T10:37:12;18.10;99.90
8824;DHT22;4448;50.904;4.694;2023-05-07T10:39:41;18.10;99.90
8824;DHT22;4448;50.904;4.694;2023-05-07T10:42:14;18.10;99.90
8824;DHT22;4448;50.904;4.694;2023-05-07T10:44:40;18.10;99.90
8824;DHT22;4448;50.904;4.694;2023-05-07T10:47:10;18.10;99.90
8824;DHT22;4448;50.904;4.694;2023-05-07T10:50:19;18.10;99.90
8824;DHT22;4448;50.904;4.694;2023-05-07T10:52:24;18.20;99.90
8824;DHT22;4448;50.904;4.694;2023-05-07T10:57:50;18.20;99.90
8824;DHT22;4448;50.904;4.694;2023-05-07T11:03:05;18.30;99.90
8824;DHT22;4448;50.904;4.694;2023-05-07T11:05:32;18.20;99.90
8824;DHT22;4448;50.904;4.694;2023-05-07T11:08:00;18.30;99.90
8824;DHT22;4448;50.904;4.694;2023-05-07T11:13:45;18.40;99.90
8824;DHT22;4448;50.904;4.694;2023-05-07T11:16:24;18.40;99.90
8824;DHT22;4448;50.904;4.694;2023-05-07T11:18:55;18.40;99.90
8824;DHT22;4448;50.904;4.694;2023-05-07T11:21:36;18.40;99.90
8824;DHT22;4448;50.904;4.694;2023-05-07T11:24:03;18.40;99.90
8824;DHT22;4448;50.904;4.694;2023-05-07T11:26:31;18.50;99.90
8824;DHT22;4448;50.904;4.694;2023-05-07T11:29:14;18.40;99.90
8824;DHT22;4448;50.904;4.694;2023-05-07T11:31:40;18.40;99.90
8824;DHT22;4448;50.904;4.694;2023-05-07T11:34:06;18.40;99.90
8824;DHT22;4448;50.904;4.694;2023-05-07T11:36:33;18.50;99.90
8824;DHT22;4448;50.904;4.694;2023-05-07T11:38:59;18.50;99.90
8824;DHT22;4448;50.904;4.694;2023-05-07T11:41:43;18.50;99.90
8824;DHT22;4448;50.904;4.694;2023-05-07T11:44:08;18.50;99.90
8824;DHT22;4448;50.904;4.694;2023-05-07T11:46:34;18.50;99.90
8824;DHT22;4448;50.904;4.694;2023-05-07T11:49:00;18.50;99.90
8824;DHT22;4448;50.904;4.694;2023-05-07T11:51:26;18.50;99.90
8824;DHT22;4448;50.904;4.694;2023-05-07T11:53:52;18.50;99.90
8824;DHT22;4448;50.904;4.694;2023-05-07T11:56:18;18.50;99.90
8824;DHT22;4448;50.904;4.694;2023-05-07T11:58:46;18.50;99.90
8824;DHT22;4448;50.904;4.694;2023-05-07T12:01:12;18.60;99.90
8824;DHT22;4448;50.904;4.694;2023-05-07T12:03:42;18.60;99.90
8824;DHT22;4448;50.904;4.694;2023-05-07T12:06:09;18.60;99.90
8824;DHT22;4448;50.904;4.694;2023-05-07T12:08:40;18.60;99.90
8824;DHT22;4448;50.904;4.694;2023-05-07T12:11:12;18.70;99.90
8824;DHT22;4448;50.904;4.694;2023-05-07T12:13:38;18.70;99.90
8824;DHT22;4448;50.904;4.694;2023-05-07T12:16:05;18.70;99.90
8824;DHT22;4448;50.904;4.694;2023-05-07T12:18:31;18.70;99.90
8824;DHT22;4448;50.904;4.694;2023-05-07T12:20:57;18.70;99.90
8824;DHT22;4448;50.904;4.694;2023-05-07T12:23:24;18.80;99.90
8824;DHT22;4448;50.904;4.694;2023-05-07T12:25:50;18.80;99.90
8824;DHT22;4448;50.904;4.694;2023-05-07T12:28:17;18.80;99.90
8824;DHT22;4448;50.904;4.694;2023-05-07T12:30:44;18.80;99.90
8824;DHT22;4448;50.904;4.694;2023-05-07T12:33:10;18.80;99.90
8824;DHT22;4448;50.904;4.694;2023-05-07T12:35:41;18.90;99.90
8824;DHT22;4448;50.904;4.694;2023-05-07T12:38:14;18.90;99.90
8824;DHT22;4448;50.904;4.694;2023-05-07T12:40:48;18.90;99.90
8824;DHT22;4448;50.904;4.694;2023-05-07T12:43:27;18.90;99.90
8824;DHT22;4448;50.904;4.694;2023-05-07T12:45:56;18.90;99.90
8824;DHT22;4448;50.904;4.694;2023-05-07T12:48:23;18.90;99.90
8824;DHT22;4448;50.904;4.694;2023-05-07T12:50:57;18.90;99.90
8824;DHT22;4448;50.904;4.694;2023-05-07T12:53:24;18.90;99.90
8824;DHT22;4448;50.904;4.694;2023-05-07T12:55:53;18.90;99.90
8824;DHT22;4448;50.904;4.694;2023-05-07T12:58:30;18.90;99.90
8824;DHT22;4448;50.904;4.694;2023-05-07T13:00:59;18.80;99.90
8824;DHT22;4448;50.904;4.694;2023-05-07T13:03:34;18.80;99.90
8824;DHT22;4448;50.904;4.694;2023-05-07T13:06:02;18.90;99.90
8824;DHT22;4448;50.904;4.694;2023-05-07T13:08:33;18.80;99.90
8824;DHT22;4448;50.904;4.694;2023-05-07T13:11:00;18.90;99.90
8824;DHT22;4448;50.904;4.694;2023-05-07T13:13:36;18.90;99.90
8824;DHT22;4448;50.904;4.694;2023-05-07T13:16:03;18.80;99.90
8824;DHT22;4448;50.904;4.694;2023-05-07T13:18:30;18.80;99.90
8824;DHT22;4448;50.904;4.694;2023-05-07T13:20:56;18.90;99.90
8824;DHT22;4448;50.904;4.694;2023-05-07T13:23:22;18.90;99.90
8824;DHT22;4448;50.904;4.694;2023-05-07T13:25:48;18.90;99.90
8824;DHT22;4448;50.904;4.694;2023-05-07T13:28:14;18.90;99.90
8824;DHT22;4448;50.904;4.694;2023-05-07T13:30:40;18.90;99.90
8824;DHT22;4448;50.904;4.694;2023-05-07T13:33:08;18.90;99.90
8824;DHT22;4448;50.904;4.694;2023-05-07T13:35:34;18.90;99.90
8824;DHT22;4448;50.904;4.694;2023-05-07T13:38:00;18.90;99.90
8824;DHT22;4448;50.904;4.694;2023-05-07T13:40:26;18.90;99.90
8824;DHT22;4448;50.904;4.694;2023-05-07T13:42:53;19.00;99.90
8824;DHT22;4448;50.904;4.694;2023-05-07T13:45:19;19.00;99.90
8824;DHT22;4448;50.904;4.694;2023-05-07T13:47:45;19.00;99.90
8824;DHT22;4448;50.904;4.694;2023-05-07T13:50:12;19.00;99.90
8824;DHT22;4448;50.904;4.694;2023-05-07T13:52:42;19.00;99.90
8824;DHT22;4448;50.904;4.694;2023-05-07T13:55:09;19.00;99.90
8824;DHT22;4448;50.904;4.694;2023-05-07T13:57:36;19.00;99.90
8824;DHT22;4448;50.904;4.694;2023-05-07T14:00:03;19.00;99.90
8824;DHT22;4448;50.904;4.694;2023-05-07T14:02:31;19.00;99.90
8824;DHT22;4448;50.904;4.694;2023-05-07T14:04:56;19.00;99.90
8824;DHT22;4448;50.904;4.694;2023-05-07T14:07:22;19.00;99.90
8824;DHT22;4448;50.904;4.694;2023-05-07T14:09:47;19.00;99.90
8824;DHT22;4448;50.904;4.694;2023-05-07T14:12:13;19.00;99.90
8824;DHT22;4448;50.904;4.694;2023-05-07T14:14:39;19.00;99.90
8824;DHT22;4448;50.904;4.694;2023-05-07T14:17:04;19.00;99.90
8824;DHT22;4448;50.904;4.694;2023-05-07T14:19:30;19.00;99.90
8824;DHT22;4448;50.904;4.694;2023-05-07T14:21:56;19.00;99.90
8824;DHT22;4448;50.904;4.694;2023-05-07T14:24:21;19.00;99.90
8824;DHT22;4448;50.904;4.694;2023-05-07T14:26:47;19.00;99.90
8824;DHT22;4448;50.904;4.694;2023-05-07T14:29:13;19.00;99.90
8824;DHT22;4448;50.904;4.694;2023-05-07T14:31:41;19.00;99.90
8824;DHT22;4448;50.904;4.694;2023-05-07T14:34:06;19.00;99.90
8824;DHT22;4448;50.904;4.694;2023-05-07T14:36:32;19.00;99.90
8824;DHT22;4448;50.904;4.694;2023-05-07T14:38:58;19.00;99.90
8824;DHT22;4448;50.904;4.694;2023-05-07T14:41:24;19.00;99.90
8824;DHT22;4448;50.904;4.694;2023-05-07T14:43:50;19.00;99.90
8824;DHT22;4448;50.904;4.694;2023-05-07T14:46:19;19.00;99.90
8824;DHT22;4448;50.904;4.694;2023-05-07T14:48:45;19.00;99.90
8824;DHT22;4448;50.904;4.694;2023-05-07T14:51:12;19.00;99.90
8824;DHT22;4448;50.904;4.694;2023-05-07T14:53:38;19.00;99.90
8824;DHT22;4448;50.904;4.694;2023-05-07T14:56:04;19.00;99.90
8824;DHT22;4448;50.904;4.694;2023-05-07T14:58:31;19.00;99.90
8824;DHT22;4448;50.904;4.694;2023-05-07T15:00:56;19.00;99.90
8824;DHT22;4448;50.904;4.694;2023-05-07T15:03:22;19.00;99.90
8824;DHT22;4448;50.904;4.694;2023-05-07T15:05:48;19.00;99.90
8824;DHT22;4448;50.904;4.694;2023-05-07T15:08:17;19.00;99.90
8824;DHT22;4448;50.904;4.694;2023-05-07T15:10:42;19.00;99.90
8824;DHT22;4448;50.904;4.694;2023-05-07T15:13:09;19.00;99.90
8824;DHT22;4448;50.904;4.694;2023-05-07T15:15:35;19.00;99.90
8824;DHT22;4448;50.904;4.694;2023-05-07T15:18:01;19.00;99.90
8824;DHT22;4448;50.904;4.694;2023-05-07T15:20:27;19.00;99.90
8824;DHT22;4448;50.904;4.694;2023-05-07T15:22:52;19.00;99.90
8824;DHT22;4448;50.904;4.694;2023-05-07T15:25:18;19.00;99.90
8824;DHT22;4448;50.904;4.694;2023-05-07T15:27:44;18.90;99.90
8824;DHT22;4448;50.904;4.694;2023-05-07T15:30:10;18.90;99.90
8824;DHT22;4448;50.904;4.694;2023-05-07T15:32:37;19.00;99.90
8824;DHT22;4448;50.904;4.694;2023-05-07T15:35:04;18.90;99.90
8824;DHT22;4448;50.904;4.694;2023-05-07T15:37:33;18.90;99.90
8824;DHT22;4448;50.904;4.694;2023-05-07T15:39:59;18.90;99.90
8824;DHT22;4448;50.904;4.694;2023-05-07T15:42:27;18.90;99.90
8824;DHT22;4448;50.904;4.694;2023-05-07T15:44:53;18.90;99.90
8824;DHT22;4448;50.904;4.694;2023-05-07T15:47:19;18.90;99.90
8824;DHT22;4448;50.904;4.694;2023-05-07T15:49:44;18.90;99.90
8824;DHT22;4448;50.904;4.694;2023-05-07T15:52:10;18.90;99.90
8824;DHT22;4448;50.904;4.694;2023-05-07T15:54:36;18.90;99.90
8824;DHT22;4448;50.904;4.694;2023-05-07T15:57:05;18.90;99.90
8824;DHT22;4448;50.904;4.694;2023-05-07T15:59:32;18.90;99.90
8824;DHT22;4448;50.904;4.694;2023-05-07T16:01:58;18.90;99.90
8824;DHT22;4448;50.904;4.694;2023-05-07T16:04:24;18.90;99.90
8824;DHT22;4448;50.904;4.694;2023-05-07T16:06:50;18.90;99.90
8824;DHT22;4448;50.904;4.694;2023-05-07T16:09:16;18.80;99.90
8824;DHT22;4448;50.904;4.694;2023-05-07T16:11:42;18.80;99.90